Calgary / Springba, Alberta

1:45 AM MST on February 26, 2017 (GMT -0700)
Springbank | | Change Station

Elev 3937 ft 51.10 °N, 114.37 °W | Updated 6 minutes ago

Light Snow
Light Snow
18 °F
Feels Like 8 °F
N
7
Wind Variable Wind from NNW

Today
High -- | Low -- °F
--% Chance of Precip.
Yesterday
High -- | Low -- °F
Precip. -- in
Pressure 29.91 in
Visibility 6.0 miles
Clouds Few 600 ft
Scattered Clouds 1600 ft
Mostly Cloudy 2300 ft
Overcast 7500 ft
Windchill 8 °F
Dew Point 16 °F
Humidity 93%
Rainfall 0.00 in
Snow Depth Not available.
7:27 AM 6:13 PM
Waning Crescent, 0% visible
SPECI CYBW 260839Z AUTO 34006KT 6SM -SN FEW006 SCT016 BKN023 OVC075 M08/M09 A2969 RMK SLP126
Pressure 29.91 in
Visibility 6.0 miles
Clouds Few 600 ft
Scattered Clouds 1600 ft
Mostly Cloudy 2300 ft
Overcast 7500 ft
Windchill 8 °F
Dew Point 16 °F
Humidity 93%
Rainfall 0.00 in
Snow Depth Not available.
7:27 AM 6:13 PM
Waning Crescent, 0% visible
SPECI CYBW 260839Z AUTO 34006KT 6SM -SN FEW006 SCT016 BKN023 OVC075 M08/M09 A2969 RMK SLP126

Get Your Daily Forecast Email!

Thanks for signing up!

Be on the lookout for a verification email in your inbox.

You'll start receiving the daily forecast at 8 AM.

×

10-Day Weather Forecast

Almanac

Astronomy

Feb. 26, 2017 Rise Set
Actual Time
Civil Twilight
Nautical Twilight
Astronomical Twilight
Moon
Length of Visible Light
Length of Day
Tomorrow will be .
, % of the Moon is Illuminated

Today's Extremes

Country Highs Country Lows

Community

WunderPhotos

Upload Photos

1,962,540 photos uploaded!

WunderBlog® & News

Nearby

Air Quality

  Air Quality AQ Index Pollutant
Not available.

Snow Depth

Station Depth Elevation

Earthquake Activity

City Distance Mag. Time & Date
Minimum magnitude displayed is 2.5.

Coastal Water Temperatures

Place Temperature

Stations

Nearby Weather Stations

Station Location Temp. Windchill Dew Point Humidity Wind Precip. Elev Updated Type
                   

Watches & Warnings

There are currently no watches in effect.